createdAt,value
2023-03-10T16:25:35.628Z,53.50
2023-03-10T16:26:35.610Z,54.62
2023-03-10T16:27:35.503Z,54.95
2023-03-10T16:28:35.713Z,55.43
2023-03-10T16:29:35.513Z,54.14
2023-03-10T16:30:35.682Z,54.46
2023-03-10T16:31:37.061Z,56.40
2023-03-10T16:32:36.776Z,53.50
2023-03-10T16:33:36.776Z,55.75
2023-03-10T16:34:36.857Z,56.07
2023-03-10T16:35:37.173Z,56.24
2023-03-10T16:36:36.641Z,55.59
2023-03-10T16:37:36.716Z,55.59
2023-03-10T16:38:36.692Z,54.79
2023-03-10T16:39:36.913Z,55.11
2023-03-10T16:40:36.615Z,55.75
2023-03-10T16:41:36.992Z,53.50
2023-03-10T16:42:36.764Z,54.30
2023-03-10T16:43:37.128Z,53.50
2023-03-10T16:44:36.886Z,54.95
2023-03-10T16:45:36.702Z,57.52
2023-03-10T16:46:36.983Z,56.40
2023-03-10T16:47:36.688Z,54.95
2023-03-10T16:48:36.811Z,55.59
2023-03-10T16:49:36.725Z,53.82
2023-03-10T16:50:36.689Z,53.98
2023-03-10T16:51:36.635Z,55.59
2023-03-10T16:52:36.894Z,56.24
2023-03-10T16:53:36.601Z,56.88
2023-03-10T16:54:36.774Z,58.81
2023-03-10T16:55:36.624Z,58.17
2023-03-10T16:56:36.586Z,58.81
2023-03-10T16:57:36.981Z,59.30
2023-03-10T16:58:36.552Z,58.65
2023-03-10T16:59:36.617Z,59.14
2023-03-10T17:00:36.547Z,59.30
2023-03-10T17:01:36.610Z,60.26
2023-03-10T17:02:36.440Z,58.97
2023-03-10T17:03:36.594Z,59.14
2023-03-10T17:04:36.481Z,59.62
2023-03-10T17:05:36.658Z,59.30
2023-03-10T17:06:36.527Z,56.88
2023-03-10T17:07:43.418Z,57.69
2023-03-10T17:08:38.426Z,57.52
2023-03-10T17:09:36.370Z,58.17
2023-03-10T17:10:36.514Z,58.65
2023-03-10T17:11:36.613Z,59.78
2023-03-10T17:12:36.590Z,59.14
2023-03-10T17:13:36.731Z,58.97
2023-03-10T17:14:36.477Z,59.94
2023-03-10T17:15:36.437Z,59.30
2023-03-10T17:16:36.503Z,59.30
2023-03-10T17:17:36.529Z,57.85
2023-03-10T17:18:36.543Z,58.81
2023-03-10T17:19:36.657Z,59.14
2023-03-10T17:20:36.495Z,58.49
2023-03-10T17:21:36.714Z,58.81
2023-03-10T17:22:37.867Z,58.81
2023-03-10T17:23:37.585Z,58.49
2023-03-10T17:24:37.146Z,59.14
2023-03-10T17:25:37.961Z,57.04
2023-03-10T17:26:36.535Z,57.04
2023-03-10T17:27:36.282Z,57.69
2023-03-10T17:28:36.264Z,59.30
2023-03-10T17:29:36.236Z,55.27
2023-03-10T17:30:36.222Z,58.65
2023-03-10T17:31:36.753Z,60.75
2023-03-10T17:32:36.493Z,58.97
2023-03-10T17:33:36.320Z,58.65
2023-03-10T17:34:36.155Z,58.33
2023-03-10T17:35:36.258Z,58.01
2023-03-10T17:36:36.273Z,54.95
2023-03-10T17:37:36.556Z,54.79
2023-03-10T17:38:36.400Z,56.24
2023-03-10T17:39:36.324Z,55.75
2023-03-10T17:40:36.360Z,54.95
2023-03-10T17:41:36.276Z,56.56
2023-03-10T17:42:36.391Z,56.56
2023-03-10T17:43:36.293Z,57.69
2023-03-10T17:44:36.227Z,52.85
2023-03-10T17:45:36.469Z,57.36
2023-03-10T17:46:36.399Z,58.49
2023-03-10T17:47:36.215Z,54.62
2023-03-10T17:48:36.664Z,58.65
2023-03-10T17:49:36.876Z,57.04
2023-03-10T17:50:36.712Z,57.69
2023-03-10T17:51:38.137Z,56.72
2023-03-10T17:52:36.501Z,54.95
2023-03-10T17:53:36.549Z,55.27
2023-03-10T17:54:36.801Z,54.79
2023-03-10T17:55:36.296Z,57.20
2023-03-10T17:56:36.722Z,55.91
2023-03-10T17:57:38.176Z,57.04
2023-03-10T17:58:36.723Z,58.17
2023-03-10T17:59:36.415Z,59.94
2023-03-10T18:00:36.574Z,58.49
2023-03-10T18:01:36.840Z,57.20
2023-03-10T18:02:37.771Z,58.33
2023-03-10T18:03:36.479Z,57.85
2023-03-10T18:04:36.158Z,57.69
2023-03-10T18:05:36.247Z,56.56
2023-03-10T18:06:36.289Z,54.62
2023-03-10T18:07:36.499Z,55.91
2023-03-10T18:08:36.704Z,57.69
2023-03-10T18:09:36.721Z,56.56
2023-03-10T18:10:36.622Z,59.30
2023-03-10T18:11:36.679Z,58.65
2023-03-10T18:12:36.410Z,57.36
2023-03-10T18:13:36.757Z,58.17
2023-03-10T18:14:36.361Z,57.04
2023-03-10T18:15:36.370Z,58.01
2023-03-10T18:16:36.575Z,56.07
2023-03-10T18:17:36.435Z,55.43
2023-03-10T18:18:36.671Z,59.30
2023-03-10T18:19:36.652Z,58.01
2023-03-10T18:20:36.249Z,55.27
2023-03-10T18:21:36.368Z,55.91
2023-03-10T18:22:36.018Z,52.21
2023-03-10T18:23:36.670Z,54.95
2023-03-10T18:24:37.069Z,53.33
2023-03-10T18:25:36.527Z,54.30
2023-03-10T18:26:36.638Z,56.88
2023-03-10T18:27:36.661Z,54.46
2023-03-10T18:28:36.452Z,54.95
2023-03-10T18:29:36.486Z,54.79
2023-03-10T18:30:36.627Z,54.46
2023-03-10T18:31:36.476Z,54.62
2023-03-10T18:32:36.438Z,57.20
2023-03-10T18:33:36.553Z,53.66
2023-03-10T18:34:36.551Z,53.82
2023-03-10T18:35:37.732Z,52.53
2023-03-10T18:36:36.600Z,55.43
2023-03-10T18:37:36.327Z,54.46
2023-03-10T18:38:36.212Z,54.79
2023-03-10T18:39:36.431Z,53.82
2023-03-10T18:40:36.402Z,54.30
2023-03-10T18:41:36.389Z,54.62
2023-03-10T18:42:35.950Z,54.46
2023-03-10T18:43:36.339Z,56.24
2023-03-10T18:44:36.383Z,55.43
2023-03-10T18:45:36.292Z,53.82
2023-03-10T18:46:36.465Z,54.79
2023-03-10T18:47:36.387Z,53.98
2023-03-10T18:48:36.201Z,52.37
2023-03-10T18:49:36.213Z,55.91
2023-03-10T18:50:36.417Z,54.46
2023-03-10T18:51:36.832Z,53.66
2023-03-10T18:52:36.436Z,53.82
2023-03-10T18:53:36.503Z,53.50
2023-03-10T18:54:36.248Z,55.11
2023-03-10T18:55:36.440Z,57.69
2023-03-10T18:56:36.291Z,55.43
2023-03-10T18:57:36.494Z,53.01
2023-03-10T18:58:36.350Z,54.14
2023-03-10T18:59:36.123Z,53.17
2023-03-10T19:00:36.279Z,55.11
2023-03-10T19:01:36.268Z,53.66
2023-03-10T19:02:36.451Z,52.69
2023-03-10T19:03:36.369Z,53.50
2023-03-10T19:04:36.355Z,53.98
2023-03-10T19:05:36.349Z,52.53
2023-03-10T19:06:36.355Z,51.88
2023-03-10T19:07:36.372Z,55.11
2023-03-10T19:08:36.549Z,54.79
2023-03-10T19:09:36.251Z,52.69
2023-03-10T19:10:36.321Z,51.72
2023-03-10T19:11:36.278Z,53.33
2023-03-10T19:12:36.257Z,53.17
2023-03-10T19:13:36.084Z,53.33
2023-03-10T19:14:36.304Z,56.24
2023-03-10T19:15:36.299Z,52.53
2023-03-10T19:16:36.045Z,53.98
2023-03-10T19:17:37.202Z,54.14
2023-03-10T19:18:37.002Z,54.14
2023-03-10T19:19:35.769Z,58.17
2023-03-10T19:20:35.983Z,57.04
2023-03-10T19:21:36.193Z,57.04
2023-03-10T19:22:37.140Z,58.49
2023-03-10T19:23:36.198Z,60.10
2023-03-10T19:24:36.523Z,60.26
2023-03-10T19:25:36.169Z,58.97
2023-03-10T19:26:36.128Z,58.81
2023-03-10T19:27:35.847Z,59.62
2023-03-10T19:28:36.250Z,58.33
2023-03-10T19:29:36.813Z,58.01
2023-03-10T19:30:36.067Z,59.62
2023-03-10T19:31:37.278Z,60.10
2023-03-10T19:32:36.029Z,59.94
2023-03-10T19:33:35.864Z,57.20
2023-03-10T19:34:35.950Z,54.79
2023-03-10T19:35:36.078Z,58.65
2023-03-10T19:36:36.063Z,60.26
2023-03-10T19:37:35.912Z,57.20
2023-03-10T19:38:36.048Z,57.20
2023-03-10T19:39:36.115Z,58.81
2023-03-10T19:40:36.353Z,57.52
2023-03-10T19:41:36.091Z,53.98
2023-03-10T19:42:35.948Z,58.97
2023-03-10T19:43:36.082Z,55.27
2023-03-10T19:44:36.010Z,56.07
2023-03-10T19:45:35.866Z,56.07
2023-03-10T19:46:36.367Z,56.24
2023-03-10T19:47:35.943Z,57.20
2023-03-10T19:48:36.012Z,53.98
2023-03-10T19:49:37.093Z,53.33
2023-03-10T19:50:35.846Z,56.40
2023-03-10T19:51:37.200Z,54.95
2023-03-10T19:52:35.703Z,50.92
2023-03-10T19:53:35.976Z,52.37
2023-03-10T19:54:36.041Z,62.84
2023-03-10T19:55:35.935Z,58.65
2023-03-10T19:56:36.007Z,58.65
2023-03-10T19:57:37.274Z,58.81
2023-03-10T19:58:35.985Z,61.23
2023-03-10T19:59:35.946Z,60.42
2023-03-10T20:00:36.440Z,55.75
2023-03-10T20:01:35.994Z,52.05
2023-03-10T20:02:36.278Z,53.50
2023-03-10T20:03:36.937Z,54.46
2023-03-10T20:04:36.895Z,56.56
2023-03-10T20:05:35.675Z,55.91
2023-03-10T20:06:35.647Z,56.72
2023-03-10T20:07:35.849Z,58.01
2023-03-10T20:08:36.022Z,58.97
2023-03-10T20:09:37.039Z,56.07
2023-03-10T20:10:35.809Z,58.17
2023-03-10T20:11:35.855Z,59.14
2023-03-10T20:12:35.766Z,54.62
2023-03-10T20:13:35.895Z,53.98
2023-03-10T20:14:35.724Z,53.82
2023-03-10T20:15:35.901Z,56.56
2023-03-10T20:16:35.926Z,57.69
2023-03-10T20:17:35.845Z,58.17
2023-03-10T20:18:35.878Z,57.36
2023-03-10T20:19:36.054Z,57.04
2023-03-10T20:20:35.845Z,58.97
2023-03-10T20:21:35.670Z,60.10
2023-03-10T20:22:35.266Z,57.69
2023-03-10T20:23:36.476Z,54.30
2023-03-10T20:24:35.769Z,55.75
2023-03-10T20:25:36.821Z,57.52
2023-03-10T20:26:35.643Z,59.94
2023-03-10T20:27:35.493Z,59.30
2023-03-10T20:28:35.454Z,55.91
2023-03-10T20:29:35.774Z,55.27
2023-03-10T20:30:35.960Z,58.65
2023-03-10T20:31:35.673Z,57.69
2023-03-10T20:32:35.820Z,57.20
2023-03-10T20:33:35.735Z,55.27
2023-03-10T20:34:35.476Z,53.17
2023-03-10T20:35:35.730Z,57.36
2023-03-10T20:36:35.383Z,56.07
2023-03-10T20:37:35.522Z,52.69
2023-03-10T20:38:35.332Z,56.24
2023-03-10T20:39:35.646Z,54.62
2023-03-10T20:40:35.421Z,55.75
2023-03-10T20:41:35.694Z,56.88
2023-03-10T20:42:35.341Z,56.56
2023-03-10T20:43:35.347Z,56.56
2023-03-10T20:44:35.292Z,56.88
2023-03-10T20:45:35.529Z,56.56
2023-03-10T20:46:35.403Z,56.72
2023-03-10T20:47:35.034Z,55.43
2023-03-10T20:48:35.487Z,55.75
2023-03-10T20:49:35.356Z,56.07
2023-03-10T20:50:35.169Z,57.69
2023-03-10T20:51:35.372Z,57.52
2023-03-10T20:52:35.656Z,55.43
2023-03-10T20:53:35.244Z,53.50
2023-03-10T20:54:35.282Z,54.62
2023-03-10T20:55:35.187Z,58.01
2023-03-10T20:56:35.389Z,55.75
2023-03-10T20:57:35.185Z,57.20
2023-03-10T20:58:35.288Z,58.65
2023-03-10T20:59:35.460Z,55.91
2023-03-10T21:00:36.093Z,54.79
2023-03-10T21:01:35.591Z,56.72
2023-03-10T21:02:35.714Z,53.66
2023-03-10T21:03:35.526Z,53.33
2023-03-10T21:04:35.489Z,56.88
2023-03-10T21:05:35.329Z,57.20
2023-03-10T21:06:35.278Z,56.40
2023-03-10T21:07:34.938Z,54.30
2023-03-10T21:08:35.559Z,57.04
2023-03-10T21:09:35.143Z,55.43
2023-03-10T21:10:35.346Z,56.07
2023-03-10T21:11:35.365Z,57.04
2023-03-10T21:12:35.395Z,56.40
2023-03-10T21:13:35.375Z,58.33
2023-03-10T21:14:35.244Z,56.07
2023-03-10T21:15:35.349Z,55.91
2023-03-10T21:16:35.258Z,53.66
2023-03-10T21:17:35.204Z,55.11
2023-03-10T21:18:35.116Z,55.91
2023-03-10T21:19:35.464Z,55.75
2023-03-10T21:20:35.334Z,56.56
2023-03-10T21:21:35.090Z,57.20
2023-03-10T21:22:35.023Z,57.04
2023-03-10T21:23:35.103Z,56.40
2023-03-10T21:24:34.953Z,58.65
2023-03-10T21:25:35.044Z,56.72
2023-03-10T21:26:35.105Z,56.72
2023-03-10T21:27:35.076Z,58.01
2023-03-10T21:28:35.315Z,57.52
2023-03-10T21:29:35.067Z,57.04
2023-03-10T21:30:35.548Z,56.40
2023-03-10T21:31:35.183Z,55.91
2023-03-10T21:32:35.136Z,55.75
2023-03-10T21:33:34.812Z,55.75
2023-03-10T21:34:34.951Z,56.88
2023-03-10T21:35:35.773Z,56.07
2023-03-10T21:36:35.122Z,56.88
2023-03-10T21:37:37.588Z,56.07
2023-03-10T21:38:36.149Z,57.52
2023-03-10T21:39:34.951Z,57.04
2023-03-10T21:40:35.120Z,57.20
2023-03-10T21:41:35.034Z,57.36
2023-03-10T21:42:35.009Z,58.01
2023-03-10T21:43:35.110Z,58.81
2023-03-10T21:44:35.068Z,58.01
2023-03-10T21:45:34.936Z,57.69
2023-03-10T21:46:35.308Z,55.75
2023-03-10T21:47:34.937Z,57.52
2023-03-10T21:48:35.210Z,56.72
2023-03-10T21:49:35.096Z,56.56
2023-03-10T21:50:35.192Z,57.36
2023-03-10T21:51:35.124Z,57.36
2023-03-10T21:52:35.039Z,59.46
2023-03-10T21:53:35.162Z,58.01
2023-03-10T21:54:34.806Z,58.97
2023-03-10T21:55:35.014Z,60.10
2023-03-10T21:56:34.926Z,57.85
2023-03-10T21:57:34.963Z,57.52
2023-03-10T21:58:34.472Z,56.07
2023-03-10T21:59:34.903Z,57.20
2023-03-10T22:00:34.869Z,57.52
2023-03-10T22:01:35.070Z,57.04
2023-03-10T22:02:34.928Z,56.88
2023-03-10T22:03:35.537Z,59.62
2023-03-10T22:04:34.980Z,58.33
2023-03-10T22:05:34.538Z,57.04
2023-03-10T22:06:34.596Z,57.36
2023-03-10T22:07:34.522Z,56.56
2023-03-10T22:08:35.048Z,57.36
2023-03-10T22:09:34.718Z,58.33
2023-03-10T22:10:34.973Z,56.40
2023-03-10T22:11:34.991Z,58.17
2023-03-10T22:12:34.903Z,59.94
2023-03-10T22:13:34.714Z,58.49
2023-03-10T22:14:35.064Z,56.24
2023-03-10T22:15:34.391Z,57.20
2023-03-10T22:16:34.880Z,56.88
2023-03-10T22:17:34.518Z,55.91
2023-03-10T22:18:34.803Z,56.07
2023-03-10T22:19:34.937Z,57.69
2023-03-10T22:20:34.795Z,56.40
2023-03-10T22:21:34.496Z,54.79
2023-03-10T22:22:34.638Z,55.43
2023-03-10T22:23:34.349Z,56.24
2023-03-10T22:24:34.369Z,57.52
2023-03-10T22:25:34.288Z,56.88
2023-03-10T22:26:34.376Z,57.20
2023-03-10T22:27:34.546Z,58.01
2023-03-10T22:28:34.829Z,55.75
2023-03-10T22:29:34.672Z,55.91
2023-03-10T22:30:34.875Z,56.40
2023-03-10T22:31:34.488Z,55.43
2023-03-10T22:32:34.826Z,55.27
2023-03-10T22:33:34.444Z,55.59
2023-03-10T22:34:34.277Z,55.59
2023-03-10T22:35:34.528Z,57.52
2023-03-10T22:36:34.591Z,59.78
2023-03-10T22:37:34.270Z,56.07
2023-03-10T22:38:34.298Z,59.78
2023-03-10T22:39:34.190Z,57.85
2023-03-10T22:40:34.184Z,56.07
2023-03-10T22:41:34.204Z,56.07
2023-03-10T22:42:35.234Z,57.69
2023-03-10T22:43:34.141Z,57.04
2023-03-10T22:44:34.048Z,59.14
2023-03-10T22:45:34.056Z,57.04
2023-03-10T22:46:34.050Z,56.56
2023-03-10T22:47:34.236Z,55.91
2023-03-10T22:48:34.043Z,54.95
2023-03-10T22:49:34.003Z,55.43
2023-03-10T22:50:35.091Z,57.04
2023-03-10T22:51:34.035Z,57.20
2023-03-10T22:52:34.147Z,54.95
2023-03-10T22:53:35.300Z,54.79
2023-03-10T22:54:33.945Z,55.43
2023-03-10T22:55:34.064Z,57.85
2023-03-10T22:56:34.052Z,57.20
2023-03-10T22:57:34.042Z,54.95
2023-03-10T22:58:34.162Z,53.66
2023-03-10T22:59:34.087Z,54.30
2023-03-10T23:00:34.065Z,57.04
2023-03-10T23:01:34.084Z,56.72
2023-03-10T23:02:34.182Z,57.69
2023-03-10T23:03:34.133Z,56.07
2023-03-10T23:04:34.120Z,56.07
2023-03-10T23:05:33.964Z,56.40
2023-03-10T23:06:34.030Z,54.95
2023-03-10T23:07:33.971Z,53.98
2023-03-10T23:08:33.956Z,56.07
2023-03-10T23:09:34.040Z,55.11
2023-03-10T23:10:33.936Z,56.56
2023-03-10T23:11:34.075Z,54.95
2023-03-10T23:12:33.845Z,55.59
2023-03-10T23:13:33.853Z,54.46
2023-03-10T23:14:33.859Z,54.14
2023-03-10T23:15:33.928Z,56.40
2023-03-10T23:16:33.881Z,55.43
2023-03-10T23:17:33.916Z,54.46
2023-03-10T23:18:33.883Z,54.46
2023-03-10T23:19:33.954Z,55.43
2023-03-10T23:20:33.929Z,56.07
2023-03-10T23:21:33.794Z,55.75
2023-03-10T23:22:33.902Z,55.59
2023-03-10T23:23:33.923Z,56.07
2023-03-10T23:24:33.835Z,55.11
2023-03-10T23:25:33.995Z,54.62
2023-03-10T23:26:33.816Z,55.43
2023-03-10T23:27:33.914Z,54.95
2023-03-10T23:28:33.836Z,55.11
2023-03-10T23:29:33.815Z,55.59
2023-03-10T23:30:33.858Z,54.46
2023-03-10T23:31:33.865Z,54.46
2023-03-10T23:32:33.829Z,53.82
2023-03-10T23:33:33.801Z,53.66
2023-03-10T23:34:33.786Z,55.91
2023-03-10T23:35:33.829Z,54.46
2023-03-10T23:36:33.845Z,56.56
2023-03-10T23:37:33.753Z,54.95
2023-03-10T23:38:33.683Z,55.43
2023-03-10T23:39:33.689Z,54.30
2023-03-10T23:40:33.676Z,53.98
2023-03-10T23:41:34.007Z,54.95
2023-03-10T23:42:33.652Z,55.91
2023-03-10T23:43:33.632Z,55.11
2023-03-10T23:44:33.664Z,52.85
2023-03-10T23:45:33.686Z,53.98
2023-03-10T23:46:33.609Z,53.66
2023-03-10T23:47:33.759Z,55.75
2023-03-10T23:48:33.778Z,54.79
2023-03-10T23:49:33.676Z,56.07
2023-03-10T23:50:33.711Z,56.56
2023-03-10T23:51:33.682Z,54.46
2023-03-10T23:52:33.723Z,55.43
2023-03-10T23:53:33.658Z,57.04
2023-03-10T23:54:33.668Z,54.46
2023-03-10T23:55:33.647Z,57.69
2023-03-10T23:56:33.624Z,54.46
2023-03-10T23:57:33.664Z,53.98
2023-03-10T23:58:33.642Z,53.66
2023-03-10T23:59:33.645Z,53.98
